Zibo, China
Current Conditions -  °F | °C
As of 4:00 PM on Thursday 23 Oct 2014 (Local Time) from ZSJN Reporting Station
Clear Clear  
Wind Chill: 75°   Ceiling: Unl
Heat Index: 75°   Visibility: 5mi
Dew Point: 52°   Wind: 9mph
Humidity: 44%   Direction: 240°WSW
Pressure: 29.88"   Gusts: NA
Location:  36.8°N, 118.1°E
Report Text: ZSJN 230800Z 24004MPS 8000 NSC 24/11 Q1012 NOSIG
Loading
Personal Weather Stations






























Interactive Weather Map
Tropical Storm Tracking
New forecast layout! Learn more

10-Day Weather Forecast

Advertisements
Track Severe Weather on mobile